Time;durP1;ratioP1;P1;durP2;ratioP2;P2;SDS_P1;SDS_P2;PMS_P1;PMS_P2;Temp;Humidity;BMP_temperature;BMP_pressure;BME280_temperature;BME280_humidity;BME280_pressure;Samples;Min_cycle;Max_cycle;Signal;HPM_P1;HPM_P2
2023/08/08 00:04:56;;;;;;;0.10;0.00;;;;;;;22.04;100.00;101388.19;10511464;28;20040;-83
2023/08/08 00:09:57;;;;;;;0.00;0.00;;;;;;;19.96;100.00;101431.09;10494678;28;20044;-83
2023/08/08 00:14:59;;;;;;;0.47;0.28;;;;;;;20.90;100.00;101441.00;10503926;28;20457;-83
2023/08/08 00:20:01;;;;;;;0.57;0.30;;;;;;;20.84;100.00;101407.00;10499786;28;20071;-82
2023/08/08 00:25:03;;;;;;;0.03;0.03;;;;;;;21.29;100.00;101392.59;10517980;28;20044;-82
2023/08/08 00:30:06;;;;;;;1.02;0.43;;;;;;;21.19;100.00;101392.69;10531178;28;20036;-82
2023/08/08 00:35:09;;;;;;;0.30;0.25;;;;;;;20.49;100.00;101394.16;10492852;28;20044;-82
2023/08/08 00:40:11;;;;;;;0.40;0.35;;;;;;;20.78;100.00;101380.88;10510682;28;20093;-82
2023/08/08 00:45:13;;;;;;;0.20;0.20;;;;;;;20.69;100.00;101386.16;10511954;28;20040;-81
2023/08/08 00:50:15;;;;;;;0.20;0.10;;;;;;;20.75;100.00;101386.13;10512375;28;20058;-81
2023/08/08 00:55:17;;;;;;;0.43;0.28;;;;;;;20.36;100.00;101377.72;10513205;28;20040;-81
2023/08/08 01:00:19;;;;;;;0.52;0.30;;;;;;;21.08;100.00;101370.97;10520710;28;20131;-82
2023/08/08 01:05:21;;;;;;;0.00;0.00;;;;;;;20.65;100.00;101374.84;10516025;28;20042;-81
2023/08/08 01:10:31;;;;;;;2.38;0.70;;;;;;;19.91;100.00;101373.63;10510358;28;20558;-81
2023/08/08 01:15:37;;;;;;;1.50;0.80;;;;;;;19.89;100.00;101367.53;10500189;28;20090;-81
2023/08/08 01:20:39;;;;;;;0.68;0.50;;;;;;;20.26;100.00;101361.19;10512932;28;20048;-82
2023/08/08 01:25:43;;;;;;;0.47;0.30;;;;;;;19.97;100.00;101349.16;10505078;28;20573;-82
2023/08/08 01:30:45;;;;;;;0.70;0.38;;;;;;;20.42;100.00;101346.25;10514092;28;20048;-81
2023/08/08 01:35:53;;;;;;;0.32;0.20;;;;;;;20.75;100.00;101345.13;10513939;28;20052;-81
2023/08/08 01:40:57;;;;;;;0.63;0.47;;;;;;;20.22;100.00;101349.88;10504450;28;20055;-81
2023/08/08 01:46:00;;;;;;;0.45;0.30;;;;;;;19.77;100.00;101336.19;10518979;28;20487;-81
2023/08/08 01:51:02;;;;;;;0.25;0.25;;;;;;;19.86;100.00;101327.47;10515282;28;20547;-81
2023/08/08 01:56:04;;;;;;;0.50;0.38;;;;;;;20.18;100.00;101327.25;10492981;28;20089;-81
2023/08/08 02:01:06;;;;;;;1.08;0.45;;;;;;;20.71;100.00;101321.56;10496354;28;20048;-81
2023/08/08 02:06:07;;;;;;;0.68;0.45;;;;;;;20.34;100.00;101337.59;10508757;28;20071;-81
2023/08/08 02:11:09;;;;;;;0.40;0.20;;;;;;;20.47;100.00;101338.38;10496665;28;20066;-81
2023/08/08 02:16:11;;;;;;;1.95;0.52;;;;;;;20.33;100.00;101328.00;10510552;28;20109;-81
2023/08/08 02:21:12;;;;;;;4.85;0.65;;;;;;;20.55;100.00;101315.63;10516662;28;20079;-80
2023/08/08 02:26:14;;;;;;;1.02;0.43;;;;;;;20.41;100.00;101313.09;10507805;28;20060;-81
2023/08/08 02:31:20;;;;;;;0.55;0.38;;;;;;;19.80;100.00;101315.25;10501779;28;20066;-82
2023/08/08 02:36:22;;;;;;;0.30;0.30;;;;;;;20.53;100.00;101307.75;10522511;28;20071;-81
2023/08/08 02:41:24;;;;;;;0.00;0.00;;;;;;;20.58;100.00;101300.75;10520629;28;20131;-81
2023/08/08 02:46:26;;;;;;;0.50;0.50;;;;;;;20.28;100.00;101300.13;10511522;28;20191;-81
2023/08/08 02:51:27;;;;;;;0.25;0.25;;;;;;;20.24;100.00;101290.56;10512017;28;20051;-82
2023/08/08 02:56:29;;;;;;;0.38;0.20;;;;;;;20.51;100.00;101291.22;10522738;28;20126;-81
2023/08/08 03:01:31;;;;;;;0.30;0.30;;;;;;;20.48;100.00;101287.78;10516420;28;20051;-81
2023/08/08 03:06:35;;;;;;;0.15;0.15;;;;;;;20.56;100.00;101284.19;10515027;28;20122;-81
2023/08/08 03:11:41;;;;;;;0.20;0.00;;;;;;;20.48;100.00;101280.78;10499021;28;20051;-81
2023/08/08 03:16:46;;;;;;;0.08;0.08;;;;;;;20.72;100.00;101279.69;10516741;28;20040;-80
2023/08/08 03:21:48;;;;;;;0.20;0.20;;;;;;;20.32;100.00;101287.91;10511006;28;20052;-81
2023/08/08 03:26:50;;;;;;;0.32;0.28;;;;;;;20.53;100.00;101278.97;10489592;28;20049;-81
2023/08/08 03:31:52;;;;;;;1.00;0.32;;;;;;;20.32;100.00;101277.44;10529563;28;20091;-81
2023/08/08 03:36:54;;;;;;;0.82;0.43;;;;;;;20.06;100.00;101273.28;10510040;28;20406;-81
2023/08/08 03:41:56;;;;;;;0.38;0.38;;;;;;;20.47;100.00;101276.41;10499295;28;20052;-81
2023/08/08 03:46:59;;;;;;;0.25;0.20;;;;;;;19.79;100.00;101287.38;10509175;28;20062;-81
2023/08/08 03:52:18;;;;;;;0.20;0.20;;;;;;;19.88;100.00;101282.13;10511772;28;20499;-81
2023/08/08 03:57:19;;;;;;;0.15;0.13;;;;;;;20.22;100.00;101266.16;10513014;28;20044;-81
2023/08/08 04:02:22;;;;;;;0.17;0.13;;;;;;;20.06;100.00;101275.03;10506206;28;20052;-81
2023/08/08 04:07:23;;;;;;;1.10;0.73;;;;;;;20.22;100.00;101266.16;10507718;28;20048;-81
2023/08/08 04:12:25;;;;;;;0.30;0.20;;;;;;;20.24;100.00;101268.78;10511692;28;20414;-81
2023/08/08 04:17:28;;;;;;;0.17;0.10;;;;;;;20.24;100.00;101267.00;10514784;28;20044;-81
2023/08/08 04:22:29;;;;;;;0.20;0.17;;;;;;;20.63;100.00;101258.78;10501773;28;20046;-81
2023/08/08 04:27:31;;;;;;;0.88;0.35;;;;;;;20.09;100.00;101267.13;10526189;28;20056;-81
2023/08/08 04:32:33;;;;;;;0.50;0.20;;;;;;;20.32;100.00;101268.69;10508577;28;20051;-81
2023/08/08 04:37:34;;;;;;;42.08;1.63;;;;;;;20.52;100.00;101268.53;10514299;28;20123;-81
2023/08/08 04:42:36;;;;;;;0.43;0.22;;;;;;;20.29;100.00;101267.84;10532784;28;20419;-82
2023/08/08 04:47:37;;;;;;;0.60;0.22;;;;;;;20.23;100.00;101267.91;10513653;28;20059;-81
2023/08/08 04:52:39;;;;;;;0.22;0.20;;;;;;;20.11;100.00;101268.00;10512787;28;20047;-81
2023/08/08 04:57:41;;;;;;;0.47;0.30;;;;;;;19.92;100.00;101260.28;10509261;28;20055;-81
2023/08/08 05:02:42;;;;;;;1.65;0.55;;;;;;;20.02;100.00;101250.66;10500853;28;20052;-82
2023/08/08 05:07:44;;;;;;;0.70;0.57;;;;;;;19.68;100.00;101257.81;10527437;28;20046;-81
2023/08/08 05:12:46;;;;;;;0.63;0.30;;;;;;;20.41;100.00;101245.06;10515629;28;20059;-82
2023/08/08 05:17:47;;;;;;;0.35;0.32;;;;;;;20.50;100.00;101255.47;10496377;28;20052;-81
2023/08/08 05:22:49;;;;;;;0.38;0.32;;;;;;;20.36;100.00;101258.19;10523992;28;20043;-81
2023/08/08 05:27:51;;;;;;;0.38;0.38;;;;;;;20.37;100.00;101252.09;10487598;28;20084;-81
2023/08/08 05:32:52;;;;;;;0.50;0.32;;;;;;;19.94;100.00;101249.84;10515634;28;20044;-81
2023/08/08 05:37:54;;;;;;;2.17;0.45;;;;;;;20.48;100.00;101241.50;10511365;28;20068;-82
2023/08/08 05:42:56;;;;;;;1.38;0.75;;;;;;;20.23;100.00;101243.50;10495298;28;20513;-81
2023/08/08 05:47:59;;;;;;;1.13;0.50;;;;;;;20.35;100.00;101247.75;10508649;28;20052;-81
2023/08/08 05:53:01;;;;;;;0.50;0.50;;;;;;;20.91;100.00;101251.53;10512070;28;20047;-82
2023/08/08 05:58:04;;;;;;;0.40;0.28;;;;;;;20.78;100.00;101255.19;10513809;28;20059;-82
2023/08/08 06:03:05;;;;;;;0.73;0.40;;;;;;;21.26;100.00;101240.66;10500483;28;20052;-82
2023/08/08 06:08:11;;;;;;;0.52;0.38;;;;;;;20.93;100.00;101254.13;10519134;28;20463;-81
2023/08/08 06:13:13;;;;;;;0.20;0.20;;;;;;;21.08;100.00;101259.19;10514492;28;20036;-81
2023/08/08 06:18:15;;;;;;;0.65;0.63;;;;;;;21.49;100.00;101264.78;10521168;28;20052;-82
2023/08/08 06:23:16;;;;;;;0.95;0.47;;;;;;;21.38;100.00;101266.69;10515635;28;20047;-82
2023/08/08 06:28:18;;;;;;;0.20;0.20;;;;;;;21.08;100.00;101274.06;10516563;28;20048;-81
2023/08/08 06:33:20;;;;;;;1.05;0.65;;;;;;;20.94;100.00;101275.97;10501666;28;20059;-81
2023/08/08 06:38:21;;;;;;;0.35;0.32;;;;;;;21.51;100.00;101272.66;10514903;28;20044;-81
2023/08/08 06:43:23;;;;;;;2.15;0.75;;;;;;;21.93;100.00;101278.16;10499057;28;20036;-82
2023/08/08 06:48:25;;;;;;;0.17;0.17;;;;;;;22.15;100.00;101280.44;10522384;28;20044;-81
2023/08/08 06:53:26;;;;;;;0.68;0.45;;;;;;;21.85;100.00;101277.41;10507262;28;20242;-81
2023/08/08 06:58:28;;;;;;;0.77;0.63;;;;;;;22.09;100.00;101272.69;10497116;28;20048;-81
2023/08/08 07:03:30;;;;;;;0.30;0.30;;;;;;;22.89;100.00;101267.78;10523351;28;20036;-81
2023/08/08 07:08:32;;;;;;;1.50;0.55;;;;;;;21.89;100.00;101278.25;10539386;28;20566;-80
2023/08/08 07:13:33;;;;;;;1.35;0.77;;;;;;;23.42;100.00;101267.59;10512734;28;20059;-81
2023/08/08 07:18:35;;;;;;;1.27;0.90;;;;;;;23.29;100.00;101265.25;10512508;28;20048;-81
2023/08/08 07:23:37;;;;;;;0.50;0.50;;;;;;;23.12;100.00;101264.69;10528729;28;20387;-81
2023/08/08 07:28:38;;;;;;;0.38;0.38;;;;;;;23.34;100.00;101254.63;10518115;28;20105;-81
2023/08/08 07:33:40;;;;;;;0.20;0.20;;;;;;;23.82;100.00;101256.16;10529527;28;20050;-80
2023/08/08 07:38:42;;;;;;;0.30;0.22;;;;;;;24.19;100.00;101259.66;10515649;28;20066;-81
2023/08/08 07:43:43;;;;;;;0.20;0.20;;;;;;;23.61;100.00;101262.78;10515031;28;20065;-80
2023/08/08 07:48:45;;;;;;;0.17;0.17;;;;;;;22.88;100.00;101255.56;10515211;28;20499;-80
2023/08/08 07:53:47;;;;;;;0.50;0.38;;;;;;;23.26;100.00;101256.56;10513812;28;20048;-79
2023/08/08 07:58:48;;;;;;;0.17;0.00;;;;;;;23.09;100.00;101255.13;10511447;28;20063;-80
2023/08/08 08:03:50;;;;;;;0.00;0.00;;;;;;;23.44;100.00;101248.25;10526653;28;20095;-79
2023/08/08 08:08:52;;;;;;;0.70;0.70;;;;;;;23.11;100.00;101247.19;10512503;28;20074;-80
2023/08/08 08:13:53;;;;;;;0.10;0.10;;;;;;;;;;10513270;28;20036;-79
2023/08/08 08:18:55;;;;;;;0.43;0.10;;;;;;;23.43;100.00;101259.66;10513785;28;20409;-80
2023/08/08 08:23:57;;;;;;;0.17;0.17;;;;;;;24.59;100.00;101247.22;10497036;28;20048;-81
2023/08/08 08:28:58;;;;;;;0.25;0.10;;;;;;;24.03;100.00;101253.94;10513461;28;20044;-80
2023/08/08 08:34:00;;;;;;;0.00;0.00;;;;;;;25.63;100.00;101234.56;10512992;28;20044;-80
2023/08/08 08:39:02;;;;;;;0.22;0.10;;;;;;;24.73;100.00;101234.56;10496847;28;20054;-79
2023/08/08 08:44:05;;;;;;;0.00;0.00;;;;;;;25.31;100.00;101232.00;10530799;28;20040;-80
2023/08/08 08:49:09;;;;;;;2.38;0.28;;;;;;;24.89;100.00;101235.00;10512762;28;20127;-79
2023/08/08 08:54:11;;;;;;;0.15;0.15;;;;;;;26.02;100.00;101223.59;10506034;28;20040;-79
2023/08/08 08:59:12;;;;;;;1.65;1.00;;;;;;;25.16;100.00;101232.44;10503568;28;20055;-79
2023/08/08 09:04:17;;;;;;;0.47;0.20;;;;;;;24.97;100.00;101240.91;10512210;28;20394;-79
2023/08/08 09:09:21;;;;;;;0.00;0.00;;;;;;;23.85;100.00;101244.69;10507560;28;20439;-79
2023/08/08 09:14:25;;;;;;;0.00;0.00;;;;;;;25.25;100.00;101237.44;10493963;28;20093;-79
2023/08/08 09:19:27;;;;;;;0.00;0.00;;;;;;;23.92;100.00;101251.53;10528934;28;20483;-79
2023/08/08 09:24:28;;;;;;;0.75;0.25;;;;;;;25.35;100.00;101240.66;10501791;28;20051;-79
2023/08/08 09:29:30;;;;;;;0.10;0.10;;;;;;;24.53;100.00;101245.63;10503872;28;20047;-78
2023/08/08 09:34:32;;;;;;;0.00;0.00;;;;;;;25.14;100.00;101245.69;10504392;28;20162;-78
2023/08/08 09:39:33;;;;;;;0.00;0.00;;;;;;;24.48;100.00;101251.03;10511965;28;20047;-79
2023/08/08 09:44:35;;;;;;;0.00;0.00;;;;;;;24.42;100.00;101253.84;10518553;28;20507;-79
2023/08/08 09:49:37;;;;;;;0.00;0.00;;;;;;;24.35;100.00;101254.91;10501711;28;20079;-80
2023/08/08 09:54:40;;;;;;;0.00;0.00;;;;;;;24.34;100.00;101248.75;10492420;28;20151;-78
2023/08/08 09:59:42;;;;;;;0.22;0.10;;;;;;;25.20;100.00;101252.56;10512232;28;20063;-78
2023/08/08 10:04:47;;;;;;;0.00;0.00;;;;;;;24.51;100.00;101252.72;10503668;28;20048;-78
2023/08/08 10:09:49;;;;;;;0.10;0.10;;;;;;;25.32;100.00;101246.03;10529630;28;20051;-78
2023/08/08 10:14:51;;;;;;;0.00;0.00;;;;;;;25.32;100.00;101248.66;10534905;28;20457;-78
2023/08/08 10:19:56;;;;;;;0.05;0.00;;;;;;;24.80;100.00;101251.06;10504364;28;20052;-79
2023/08/08 10:24:58;;;;;;;0.22;0.00;;;;;;;25.29;100.00;101254.03;10494648;28;20221;-79
2023/08/08 10:30:06;;;;;;;0.00;0.00;;;;;;;25.33;100.00;101246.00;10520793;28;20123;-78
2023/08/08 10:35:11;;;;;;;0.20;0.17;;;;;;;25.34;100.00;101252.13;10538199;28;20036;-79
2023/08/08 10:40:17;;;;;;;0.00;0.00;;;;;;;25.17;100.00;101261.41;10531257;28;20079;-78
2023/08/08 10:45:19;;;;;;;0.00;0.00;;;;;;;24.11;100.00;101259.00;10494774;28;20498;-79
2023/08/08 10:50:24;;;;;;;0.28;0.10;;;;;;;24.86;100.00;101250.88;10496135;28;20060;-79
2023/08/08 10:55:31;;;;;;;0.00;0.00;;;;;;;25.10;100.00;101259.00;10511986;28;20046;-79
2023/08/08 11:00:35;;;;;;;0.00;0.00;;;;;;;24.81;100.00;101255.44;10530320;28;20139;-79
2023/08/08 11:05:38;;;;;;;0.05;0.03;;;;;;;24.05;100.00;101255.63;10512903;28;20430;-79
2023/08/08 11:10:40;;;;;;;0.15;0.15;;;;;;;25.40;100.00;101240.56;10500540;28;20083;-79
2023/08/08 11:15:42;;;;;;;0.13;0.08;;;;;;;24.97;100.00;101247.94;10530435;28;20047;-79
2023/08/08 11:20:44;;;;;;;0.00;0.00;;;;;;;25.28;100.00;101232.06;10518955;28;20508;-79
2023/08/08 11:25:47;;;;;;;0.10;0.05;;;;;;;24.22;100.00;101233.28;10498778;28;20131;-79
2023/08/08 11:31:09;;;;;;;0.05;0.00;;;;;;;25.34;100.00;101237.19;10523708;28;20033;-79
2023/08/08 11:36:14;;;;;;;0.00;0.00;;;;;;;24.82;100.00;101236.09;10518410;28;20560;-78
2023/08/08 11:41:19;;;;;;;0.00;0.00;;;;;;;26.15;100.00;101234.66;10535823;28;20042;-79
2023/08/08 11:46:25;;;;;;;0.00;0.00;;;;;;;25.78;100.00;101239.34;10500462;28;20083;-79
2023/08/08 11:51:27;;;;;;;0.00;0.00;;;;;;;26.07;100.00;101226.09;10516937;28;20079;-79
2023/08/08 11:56:33;;;;;;;0.10;0.10;;;;;;;25.57;100.00;101235.63;10511317;28;20503;-79
2023/08/08 12:01:35;;;;;;;0.10;0.10;;;;;;;25.28;100.00;101237.34;10516328;28;20518;-79
2023/08/08 12:06:43;;;;;;;0.20;0.10;;;;;;;27.14;100.00;101225.81;10511666;28;20047;-78
2023/08/08 12:11:46;;;;;;;0.00;0.00;;;;;;;25.92;100.00;101233.63;10518225;28;20513;-79
2023/08/08 12:16:47;;;;;;;0.00;0.00;;;;;;;25.64;98.80;101218.69;10500471;28;20313;-79
2023/08/08 12:21:49;;;;;;;0.20;0.00;;;;;;;26.13;100.00;101220.63;10502676;28;20134;-78
2023/08/08 12:26:51;;;;;;;0.00;0.00;;;;;;;25.64;100.00;101223.97;10502509;28;20047;-79
2023/08/08 12:31:53;;;;;;;0.00;0.00;;;;;;;25.81;99.53;101226.06;10492363;28;20391;-79
2023/08/08 12:36:54;;;;;;;0.00;0.00;;;;;;;26.30;100.00;101233.25;10515385;28;20059;-79
2023/08/08 12:41:56;;;;;;;2.72;0.22;;;;;;;26.16;100.00;101220.53;10484070;28;20497;-79
2023/08/08 12:46:58;;;;;;;0.00;0.00;;;;;;;25.86;100.00;101232.94;10500379;28;20452;-79
2023/08/08 12:52:00;;;;;;;0.00;0.00;;;;;;;26.06;100.00;101227.00;10510488;28;20060;-78
2023/08/08 12:57:02;;;;;;;0.00;0.00;;;;;;;25.48;100.00;101233.28;10504024;28;20047;-79
2023/08/08 13:02:04;;;;;;;0.10;0.10;;;;;;;26.05;100.00;101222.63;10501012;28;20127;-78
2023/08/08 13:07:07;;;;;;;0.08;0.08;;;;;;;25.26;100.00;101230.41;10496014;28;20051;-80
2023/08/08 13:12:09;;;;;;;0.20;0.15;;;;;;;25.82;100.00;101232.19;10520200;28;20063;-79
2023/08/08 13:17:10;;;;;;;0.00;0.00;;;;;;;25.08;100.00;101234.44;10507779;28;20199;-79
2023/08/08 13:22:12;;;;;;;0.00;0.00;;;;;;;25.10;100.00;101224.72;10505004;28;20510;-79
2023/08/08 13:27:14;;;;;;;0.10;0.10;;;;;;;25.54;100.00;101216.41;10505680;28;20043;-79
2023/08/08 13:32:15;;;;;;;0.10;0.10;;;;;;;24.92;100.00;101229.63;10491877;28;20036;-79
2023/08/08 13:37:17;;;;;;;0.20;0.10;;;;;;;24.80;100.00;101230.84;10509103;28;20044;-79
2023/08/08 13:42:19;;;;;;;0.10;0.10;;;;;;;25.59;100.00;101239.06;10509878;28;20048;-80
2023/08/08 13:47:21;;;;;;;0.22;0.10;;;;;;;25.78;100.00;101244.63;10509143;28;20060;-79
2023/08/08 13:52:22;;;;;;;0.05;0.00;;;;;;;24.95;100.00;101245.38;10509180;28;20084;-79
2023/08/08 13:57:24;;;;;;;0.08;0.00;;;;;;;25.23;100.00;101248.97;10509027;28;20103;-79
2023/08/08 14:02:26;;;;;;;0.00;0.00;;;;;;;24.89;100.00;101250.81;10513491;28;20202;-79
2023/08/08 14:07:28;;;;;;;1.65;0.35;;;;;;;25.24;100.00;101256.81;10509683;28;20512;-79
2023/08/08 14:12:30;;;;;;;0.20;0.10;;;;;;;24.94;100.00;101256.81;10490796;28;20051;-79
2023/08/08 14:17:32;;;;;;;0.20;0.10;;;;;;;24.52;100.00;101262.34;10516826;28;20148;-79
2023/08/08 14:22:34;;;;;;;0.90;0.68;;;;;;;24.38;100.00;101255.69;10516415;28;20491;-78
2023/08/08 14:27:36;;;;;;;0.20;0.10;;;;;;;25.42;100.00;101254.56;10500730;28;20040;-78
2023/08/08 14:32:40;;;;;;;0.00;0.00;;;;;;;25.45;100.00;101260.63;10499989;28;20396;-79
2023/08/08 14:37:42;;;;;;;0.03;0.03;;;;;;;25.52;100.00;101261.28;10516530;28;20040;-79
2023/08/08 14:42:44;;;;;;;0.00;0.00;;;;;;;25.02;100.00;101260.09;10529556;28;20063;-79
2023/08/08 14:47:45;;;;;;;0.00;0.00;;;;;;;24.57;100.00;101278.03;10500375;28;20040;-79
2023/08/08 14:52:47;;;;;;;0.17;0.00;;;;;;;24.19;100.00;101278.97;10497139;28;20494;-79
2023/08/08 14:57:49;;;;;;;0.30;0.10;;;;;;;24.25;100.00;101275.31;10519943;28;20054;-79
2023/08/08 15:02:51;;;;;;;0.00;0.00;;;;;;;24.80;100.00;101272.16;10515299;28;20615;-79
2023/08/08 15:07:52;;;;;;;0.00;0.00;;;;;;;24.85;100.00;101263.22;10533028;28;20495;-79
2023/08/08 15:12:54;;;;;;;3.53;0.38;;;;;;;24.85;100.00;101262.34;10498817;28;20109;-79
2023/08/08 15:17:56;;;;;;;0.00;0.00;;;;;;;25.60;100.00;101272.44;10502533;28;20044;-79
2023/08/08 15:22:58;;;;;;;0.32;0.15;;;;;;;24.85;100.00;101268.50;10507593;28;20071;-78
2023/08/08 15:27:59;;;;;;;0.00;0.00;;;;;;;25.39;100.00;101259.94;10513018;28;20071;-79
2023/08/08 15:33:01;;;;;;;0.00;0.00;;;;;;;24.82;100.00;101270.34;10514197;28;20048;-79
2023/08/08 15:38:03;;;;;;;0.10;0.10;;;;;;;25.05;100.00;101271.47;10531365;28;20036;-79
2023/08/08 15:43:06;;;;;;;0.00;0.00;;;;;;;24.22;100.00;101285.94;10513116;28;20048;-79
2023/08/08 15:48:07;;;;;;;0.08;0.08;;;;;;;24.20;100.00;101298.25;10512277;28;20044;-79
2023/08/08 15:53:10;;;;;;;0.00;0.00;;;;;;;24.41;100.00;101296.88;10495773;28;20048;-79
2023/08/08 15:58:11;;;;;;;0.00;0.00;;;;;;;24.45;100.00;101282.69;10513065;28;20040;-78
2023/08/08 16:03:13;;;;;;;0.10;0.10;;;;;;;24.28;100.00;101279.63;10508062;28;20066;-79
2023/08/08 16:08:15;;;;;;;0.22;0.17;;;;;;;24.98;100.00;101283.94;10512757;28;20414;-79
2023/08/08 16:13:19;;;;;;;0.30;0.30;;;;;;;24.66;100.00;101280.38;10496332;28;20047;-79
2023/08/08 16:18:21;;;;;;;0.17;0.17;;;;;;;25.21;100.00;101272.72;10513327;28;20048;-79
2023/08/08 16:23:23;;;;;;;0.10;0.10;;;;;;;25.14;100.00;101272.06;10510491;28;20566;-79
2023/08/08 16:28:25;;;;;;;0.10;0.10;;;;;;;25.80;100.00;101269.19;10512060;28;20085;-79
2023/08/08 16:33:27;;;;;;;0.22;0.10;;;;;;;24.89;100.00;101264.00;10511317;28;20042;-78
2023/08/08 16:38:29;;;;;;;0.25;0.20;;;;;;;25.32;100.00;101265.38;10495270;28;20043;-79
2023/08/08 16:43:36;;;;;;;0.28;0.20;;;;;;;25.50;100.00;101263.97;10508699;28;20054;-80
2023/08/08 16:48:37;;;;;;;0.00;0.00;;;;;;;24.71;100.00;101258.31;10493621;28;20093;-79
2023/08/08 16:53:39;;;;;;;0.00;0.00;;;;;;;24.64;100.00;101253.25;10512821;28;20039;-77
2023/08/08 16:58:42;;;;;;;0.00;0.00;;;;;;;24.45;100.00;101255.50;10522855;28;20525;-76
2023/08/08 17:03:43;;;;;;;0.00;0.00;;;;;;;24.22;100.00;101256.97;10520009;28;20055;-77
2023/08/08 17:08:45;;;;;;;0.00;0.00;;;;;;;24.41;100.00;101262.63;10514460;28;20047;-76
2023/08/08 17:13:48;;;;;;;0.47;0.20;;;;;;;24.43;100.00;101262.56;10514315;28;20052;-76
2023/08/08 17:18:49;;;;;;;0.10;0.10;;;;;;;24.65;100.00;101258.47;10494569;28;20052;-77
2023/08/08 17:23:51;;;;;;;0.00;0.00;;;;;;;24.02;100.00;101268.84;10513793;28;20517;-77
2023/08/08 17:28:53;;;;;;;0.03;0.00;;;;;;;24.07;100.00;101264.34;10496187;28;20095;-77
2023/08/08 17:33:57;;;;;;;0.00;0.00;;;;;;;23.56;100.00;101269.94;10506223;28;20511;-76
2023/08/08 17:38:59;;;;;;;0.22;0.10;;;;;;;23.50;100.00;101262.16;10528414;28;20048;-77
2023/08/08 17:44:01;;;;;;;0.00;0.00;;;;;;;23.34;100.00;101259.88;10508117;28;20477;-77
2023/08/08 17:49:03;;;;;;;0.28;0.10;;;;;;;23.81;100.00;101253.56;10500700;28;20075;-77
2023/08/08 17:54:05;;;;;;;0.00;0.00;;;;;;;23.71;100.00;101259.06;10514191;28;20130;-77
2023/08/08 17:59:07;;;;;;;0.00;0.00;;;;;;;23.13;100.00;101263.78;10512896;28;20047;-77
2023/08/08 18:04:09;;;;;;;0.00;0.00;;;;;;;23.44;100.00;101256.13;10521402;28;20491;-76
2023/08/08 18:09:11;;;;;;;0.00;0.00;;;;;;;23.08;100.00;101258.63;10521601;28;20053;-77
2023/08/08 18:14:13;;;;;;;0.00;0.00;;;;;;;23.18;100.00;101263.75;10500470;28;20048;-77
2023/08/08 18:19:18;;;;;;;0.00;0.00;;;;;;;22.60;100.00;101269.22;10517246;28;20043;-77
2023/08/08 18:24:20;;;;;;;0.63;0.35;;;;;;;22.59;100.00;101278.00;10520023;28;20052;-76
2023/08/08 18:29:22;;;;;;;0.00;0.00;;;;;;;22.92;100.00;101272.97;10507280;28;20052;-76
2023/08/08 18:34:24;;;;;;;0.10;0.10;;;;;;;22.95;100.00;101265.91;10503114;28;20098;-76
2023/08/08 18:39:26;;;;;;;0.00;0.00;;;;;;;22.05;100.00;101268.34;10513457;28;20395;-76
2023/08/08 18:44:27;;;;;;;0.40;0.10;;;;;;;22.50;100.00;101256.25;10509382;28;20452;-76
2023/08/08 18:49:29;;;;;;;0.00;0.00;;;;;;;22.40;100.00;101267.81;10520814;28;20144;-77
2023/08/08 18:54:31;;;;;;;0.00;0.00;;;;;;;22.30;100.00;101266.22;10517946;28;20105;-77
2023/08/08 18:59:33;;;;;;;0.03;0.03;;;;;;;22.03;100.00;101260.53;10518241;28;20048;-77
2023/08/08 19:04:34;;;;;;;0.22;0.10;;;;;;;22.27;100.00;101268.88;10519042;28;20048;-76
2023/08/08 19:09:36;;;;;;;0.00;0.00;;;;;;;22.49;100.00;101264.13;10514410;28;20072;-76
2023/08/08 19:14:38;;;;;;;6.78;0.95;;;;;;;22.66;100.00;101253.34;10502007;28;20062;-77
2023/08/08 19:19:39;;;;;;;0.10;0.10;;;;;;;22.61;100.00;101268.31;10508728;28;20062;-77
2023/08/08 19:24:41;;;;;;;0.00;0.00;;;;;;;22.96;100.00;101266.78;10518049;28;20503;-76
2023/08/08 19:29:43;;;;;;;0.45;0.10;;;;;;;22.38;100.00;101287.94;10518698;28;20047;-77
2023/08/08 19:34:45;;;;;;;0.55;0.35;;;;;;;22.19;100.00;101298.75;10529479;28;20083;-77
2023/08/08 19:39:46;;;;;;;0.20;0.10;;;;;;;21.88;100.00;101277.38;10517193;28;20515;-78
2023/08/08 19:44:48;;;;;;;0.05;0.03;;;;;;;20.71;100.00;101284.91;10499898;28;20495;-78
2023/08/08 19:49:50;;;;;;;0.20;0.20;;;;;;;20.60;100.00;101293.72;10532282;28;20044;-78
2023/08/08 19:54:51;;;;;;;0.03;0.03;;;;;;;21.07;100.00;101277.56;10516859;28;20052;-78
2023/08/08 19:59:53;;;;;;;0.17;0.10;;;;;;;20.87;100.00;101281.28;10514419;28;20391;-78
2023/08/08 20:04:55;;;;;;;0.47;0.05;;;;;;;21.07;100.00;101282.81;10515069;28;20052;-77
2023/08/08 20:09:57;;;;;;;0.03;0.03;;;;;;;21.02;100.00;101279.38;10493877;28;20411;-77
2023/08/08 20:14:59;;;;;;;0.30;0.10;;;;;;;21.36;100.00;101284.19;10540204;28;20487;-77
2023/08/08 20:20:01;;;;;;;0.52;0.13;;;;;;;21.24;100.00;101286.09;10486156;28;20043;-78
2023/08/08 20:25:03;;;;;;;0.00;0.00;;;;;;;21.83;100.00;101269.59;10518101;28;20081;-78
2023/08/08 20:30:05;;;;;;;0.00;0.00;;;;;;;21.63;100.00;101272.50;10528646;28;20410;-79
2023/08/08 20:35:07;;;;;;;0.00;0.00;;;;;;;21.37;100.00;101285.94;10514589;28;20048;-77
2023/08/08 20:40:09;;;;;;;0.10;0.10;;;;;;;21.59;100.00;101281.31;10511110;28;20417;-78
2023/08/08 20:45:11;;;;;;;0.03;0.03;;;;;;;21.40;100.00;101271.03;10492116;28;20139;-78
2023/08/08 20:50:12;;;;;;;0.52;0.22;;;;;;;20.47;100.00;101259.84;10497239;28;20054;-78
2023/08/08 20:55:14;;;;;;;0.00;0.00;;;;;;;21.21;100.00;101265.16;10505909;28;20048;-78
2023/08/08 21:00:16;;;;;;;0.10;0.00;;;;;;;21.36;100.00;101257.97;10490200;28;20050;-78
2023/08/08 21:05:18;;;;;;;0.00;0.00;;;;;;;21.41;100.00;101256.16;10493685;28;20486;-77
2023/08/08 21:10:19;;;;;;;0.10;0.10;;;;;;;21.87;100.00;101262.53;10521993;28;20045;-78
2023/08/08 21:15:21;;;;;;;0.10;0.10;;;;;;;21.74;100.00;101282.81;10497181;28;20044;-77
2023/08/08 21:20:23;;;;;;;0.20;0.10;;;;;;;21.46;100.00;101279.69;10494612;28;20047;-81
2023/08/08 21:25:25;;;;;;;0.08;0.08;;;;;;;21.97;100.00;101287.72;10509981;28;20088;-80
2023/08/08 21:34:56;;;;;;;0.00;0.00;;;;;;;20.66;100.00;101239.59;10484706;28;20420;-81
2023/08/08 21:40:00;;;;;;;0.00;0.00;;;;;;;21.16;100.00;101235.53;10446625;28;20493;-80
2023/08/08 21:45:02;;;;;;;0.05;0.03;;;;;;;21.54;100.00;101247.25;10446921;28;20041;-80
2023/08/08 21:50:06;;;;;;;0.45;0.10;;;;;;;22.04;100.00;101230.78;10444231;28;20060;-81
2023/08/08 21:55:08;;;;;;;0.00;0.00;;;;;;;22.08;100.00;101216.69;10423993;28;20408;-81
2023/08/08 22:00:13;;;;;;;0.15;0.10;;;;;;;22.37;100.00;101228.47;10441345;28;20504;-81
2023/08/08 22:05:16;;;;;;;0.10;0.00;;;;;;;21.37;100.00;101225.66;10441230;28;20064;-80
2023/08/08 22:10:18;;;;;;;0.00;0.00;;;;;;;21.89;100.00;101213.56;10417385;28;20056;-80
2023/08/08 22:15:21;;;;;;;0.00;0.00;;;;;;;22.40;100.00;101202.19;10447747;28;20417;-79
2023/08/08 22:20:22;;;;;;;0.00;0.00;;;;;;;22.21;100.00;101211.25;10423830;28;20045;-80
2023/08/08 22:25:24;;;;;;;0.00;0.00;;;;;;;22.41;100.00;101227.53;10456599;28;20057;-80
2023/08/08 22:30:26;;;;;;;0.10;0.00;;;;;;;22.03;100.00;101234.28;10453953;28;20128;-82
2023/08/08 22:35:27;;;;;;;0.08;0.03;;;;;;;21.50;100.00;101224.56;10445112;28;20048;-80
2023/08/08 22:40:29;;;;;;;0.25;0.22;;;;;;;21.69;100.00;101229.59;10427102;28;20069;-80
2023/08/08 22:45:31;;;;;;;0.00;0.00;;;;;;;21.00;100.00;101223.50;10407355;28;20053;-79
2023/08/08 22:50:43;;;;;;;0.00;0.00;;;;;;;21.78;100.00;101224.19;10429462;28;20041;-79
2023/08/08 22:55:45;;;;;;;0.10;0.10;;;;;;;21.24;100.00;101217.97;10441651;28;20049;-79
2023/08/08 23:00:47;;;;;;;0.20;0.20;;;;;;;21.05;100.00;101221.69;10412485;28;20056;-79